Time;durP1;ratioP1;P1;durP2;ratioP2;P2;SDS_P1;SDS_P2;PMS_P1;PMS_P2;Temp;Humidity;BMP_temperature;BMP_pressure;BME280_temperature;BME280_humidity;BME280_pressure;Samples;Min_cycle;Max_cycle;Signal;HPM_P1;HPM_P2
2023/03/04 00:01:44;;;;;;;14.80;1.67;;;5.40;99.90;;;;;;5073281;28;20135;-24
2023/03/04 00:04:10;;;;;;;17.40;1.92;;;5.40;99.90;;;;;;5073850;28;20041;-24
2023/03/04 00:06:36;;;;;;;14.55;2.25;;;5.40;99.90;;;;;;5073726;28;20118;-24
2023/03/04 00:09:03;;;;;;;12.95;2.33;;;5.40;99.90;;;;;;5074288;28;20486;-24
2023/03/04 00:11:30;;;;;;;17.23;3.42;;;5.30;99.90;;;;;;5071795;28;20052;-24
2023/03/04 00:13:56;;;;;;;13.70;1.60;;;5.40;99.90;;;;;;5073728;28;20048;-24
2023/03/04 00:16:26;;;;;;;16.02;2.13;;;5.30;99.90;;;;;;5073085;28;20378;-24
2023/03/04 00:18:52;;;;;;;13.95;1.42;;;5.30;99.90;;;;;;5073715;28;20445;-24
2023/03/04 00:21:18;;;;;;;15.15;2.80;;;5.30;99.90;;;;;;5073684;28;20059;-24
2023/03/04 00:23:43;;;;;;;19.67;1.80;;;5.40;99.90;;;;;;5074153;28;20040;-24
2023/03/04 00:26:09;;;;;;;13.90;2.70;;;5.40;99.90;;;;;;5073580;28;20055;-24
2023/03/04 00:28:35;;;;;;;16.95;1.77;;;5.40;99.90;;;;;;5074051;28;20076;-24
2023/03/04 00:31:01;;;;;;;15.02;1.80;;;5.30;99.90;;;;;;5072838;28;20040;-24
2023/03/04 00:33:27;;;;;;;11.23;1.52;;;5.40;99.90;;;;;;5073496;28;20036;-24
2023/03/04 00:35:53;;;;;;;12.95;1.92;;;5.40;99.90;;;;;;5073567;28;20087;-24
2023/03/04 00:38:18;;;;;;;22.48;3.65;;;5.40;99.90;;;;;;5073478;28;20079;-24
2023/03/04 00:40:44;;;;;;;17.95;3.00;;;5.50;99.90;;;;;;5073458;28;20094;-24
2023/03/04 00:43:10;;;;;;;15.95;2.38;;;5.50;99.90;;;;;;5073445;28;20406;-24
2023/03/04 00:45:36;;;;;;;15.93;2.83;;;5.50;99.90;;;;;;5072785;28;20106;-24
2023/03/04 00:48:01;;;;;;;15.43;2.15;;;5.50;99.90;;;;;;5072131;28;20054;-24
2023/03/04 00:50:27;;;;;;;18.77;2.45;;;5.50;99.90;;;;;;5072237;28;20083;-24
2023/03/04 00:52:53;;;;;;;21.30;2.78;;;5.50;99.90;;;;;;5072140;28;20478;-24
2023/03/04 00:55:19;;;;;;;12.93;1.55;;;5.40;99.90;;;;;;5073617;28;20056;-24
2023/03/04 00:57:44;;;;;;;14.02;2.13;;;5.40;99.90;;;;;;5073896;28;20475;-24
2023/03/04 01:00:11;;;;;;;20.35;3.00;;;5.40;99.90;;;;;;5073339;28;20128;-24
2023/03/04 01:02:37;;;;;;;18.10;2.55;;;5.40;99.90;;;;;;5073164;28;20110;-24
2023/03/04 01:05:03;;;;;;;11.80;1.77;;;5.40;99.90;;;;;;5056340;28;20471;-24
2023/03/04 01:07:28;;;;;;;16.02;2.08;;;5.40;99.90;;;;;;5072026;28;20452;-24
2023/03/04 01:09:54;;;;;;;14.00;1.98;;;5.40;99.90;;;;;;5072897;28;20037;-24
2023/03/04 01:12:20;;;;;;;13.43;2.17;;;5.40;99.90;;;;;;5074034;28;20048;-24
2023/03/04 01:14:46;;;;;;;11.25;2.25;;;5.40;99.90;;;;;;5073135;28;20095;-24
2023/03/04 01:17:11;;;;;;;17.23;3.10;;;5.40;99.90;;;;;;5071932;28;20083;-24
2023/03/04 01:19:37;;;;;;;21.08;2.13;;;5.40;99.90;;;;;;5071802;28;20048;-24
2023/03/04 01:22:03;;;;;;;15.82;1.77;;;5.30;99.90;;;;;;5073236;28;20060;-24
2023/03/04 01:24:29;;;;;;;10.55;1.40;;;5.40;99.90;;;;;;5076759;28;20060;-24
2023/03/04 01:26:55;;;;;;;13.63;1.98;;;5.40;99.90;;;;;;5076682;28;20475;-24
2023/03/04 01:29:22;;;;;;;16.38;3.22;;;5.40;99.90;;;;;;5076682;28;20041;-24
2023/03/04 01:31:47;;;;;;;18.13;2.88;;;5.30;99.90;;;;;;5076314;28;20466;-24
2023/03/04 01:34:13;;;;;;;13.85;1.92;;;5.30;99.90;;;;;;5076594;28;20131;-24
2023/03/04 01:36:39;;;;;;;17.35;2.10;;;5.20;99.90;;;;;;5075837;28;20048;-24
2023/03/04 01:39:05;;;;;;;16.02;2.13;;;5.30;99.90;;;;;;5076521;28;20058;-24
2023/03/04 01:41:31;;;;;;;13.40;2.00;;;5.20;99.90;;;;;;5076453;28;20103;-24
2023/03/04 01:43:59;;;;;;;21.55;2.00;;;5.40;99.90;;;;;;5076397;28;20054;-24
2023/03/04 01:46:25;;;;;;;17.33;2.53;;;5.20;99.90;;;;;;5077189;28;20040;-24
2023/03/04 01:48:51;;;;;;;11.40;1.83;;;5.20;99.90;;;;;;5076335;28;20162;-24
2023/03/04 01:51:19;;;;;;;13.70;1.67;;;5.20;99.90;;;;;;5076309;28;20075;-24
2023/03/04 01:53:49;;;;;;;10.77;1.75;;;5.10;99.90;;;;;;5076330;28;20155;-24
2023/03/04 01:56:20;;;;;;;9.43;1.73;;;5.20;99.90;;;;;;5076206;28;20045;-24
2023/03/04 01:59:09;;;;;;;11.15;2.28;;;5.10;99.90;;;;;;5076195;28;20049;-24
2023/03/04 02:01:36;;;;;;;10.82;1.15;;;5.20;99.90;;;;;;5076024;28;20064;-24
2023/03/04 02:04:02;;;;;;;11.18;1.80;;;5.20;99.90;;;;;;5075129;28;20051;-24
2023/03/04 02:06:28;;;;;;;8.23;1.40;;;5.20;99.90;;;;;;5074862;28;20056;-24
2023/03/04 02:08:53;;;;;;;15.30;1.90;;;5.20;99.90;;;;;;5075877;28;20482;-24
2023/03/04 02:11:19;;;;;;;11.75;1.48;;;5.40;99.90;;;;;;5075682;28;20048;-24
2023/03/04 02:13:45;;;;;;;10.98;1.77;;;5.30;99.90;;;;;;5075852;28;20048;-24
2023/03/04 02:16:11;;;;;;;8.75;1.35;;;5.40;99.90;;;;;;5076134;28;20041;-24
2023/03/04 02:18:36;;;;;;;17.33;1.65;;;5.30;99.90;;;;;;5075761;28;20398;-24
2023/03/04 02:21:20;;;;;;;16.77;2.38;;;5.30;99.90;;;;;;5076063;28;20048;-24
2023/03/04 02:24:04;;;;;;;11.88;1.52;;;5.30;99.90;;;;;;5075440;28;20048;-24
2023/03/04 02:26:33;;;;;;;10.32;2.38;;;5.30;99.90;;;;;;5075588;28;20497;-24
2023/03/04 02:29:01;;;;;;;14.90;2.38;;;5.30;99.90;;;;;;5075741;28;20548;-24
2023/03/04 02:31:39;;;;;;;18.52;2.45;;;5.20;99.90;;;;;;5075574;28;20052;-24
2023/03/04 02:34:10;;;;;;;11.38;1.58;;;5.30;99.90;;;;;;5075519;28;20043;-24
2023/03/04 02:36:36;;;;;;;12.60;2.08;;;5.30;99.90;;;;;;5076053;28;20376;-24
2023/03/04 02:39:27;;;;;;;9.90;1.80;;;5.40;99.90;;;;;;5074236;28;20129;-24
2023/03/04 02:41:54;;;;;;;8.75;1.77;;;5.40;99.90;;;;;;5075382;28;20044;-24
2023/03/04 02:44:29;;;;;;;9.02;1.08;;;5.40;99.90;;;;;;5075286;28;20103;-24
2023/03/04 02:46:55;;;;;;;9.45;1.67;;;5.40;99.90;;;;;;5075237;28;20135;-24
2023/03/04 02:49:24;;;;;;;9.23;1.52;;;5.40;99.90;;;;;;5075127;28;20123;-24
2023/03/04 02:52:02;;;;;;;12.38;2.08;;;5.40;99.90;;;;;;5075922;28;20071;-24
2023/03/04 02:54:28;;;;;;;14.93;1.88;;;5.40;99.90;;;;;;5075116;28;20501;-24
2023/03/04 02:56:58;;;;;;;7.32;1.52;;;5.30;99.90;;;;;;5075017;28;20127;-24
2023/03/04 02:59:24;;;;;;;17.13;2.63;;;5.40;99.90;;;;;;5075334;28;20048;-24
2023/03/04 03:01:50;;;;;;;9.70;1.25;;;5.40;99.90;;;;;;5074006;28;20055;-24
2023/03/04 03:04:16;;;;;;;15.88;1.98;;;5.40;99.90;;;;;;5074172;28;20079;-24
2023/03/04 03:06:42;;;;;;;15.68;2.08;;;5.40;99.90;;;;;;5075014;28;20051;-24
2023/03/04 03:09:08;;;;;;;12.48;1.98;;;5.50;99.90;;;;;;5074726;28;20041;-24
2023/03/04 03:11:34;;;;;;;10.07;1.75;;;5.50;99.90;;;;;;5075031;28;20052;-24
2023/03/04 03:14:01;;;;;;;15.60;2.08;;;5.50;99.90;;;;;;5075203;28;20167;-24
2023/03/04 03:16:27;;;;;;;13.35;1.80;;;5.40;99.90;;;;;;5074690;28;20047;-24
2023/03/04 03:18:53;;;;;;;14.13;1.92;;;5.40;99.90;;;;;;5074594;28;20045;-24
2023/03/04 03:21:18;;;;;;;8.20;1.05;;;5.50;99.90;;;;;;5075339;28;20041;-24
2023/03/04 03:23:44;;;;;;;13.80;1.63;;;5.40;99.90;;;;;;5074512;28;20075;-24
2023/03/04 03:26:10;;;;;;;23.15;2.38;;;5.40;99.90;;;;;;5074486;28;20102;-24
2023/03/04 03:28:36;;;;;;;11.55;1.65;;;5.40;99.90;;;;;;5073691;28;20067;-24
2023/03/04 03:31:02;;;;;;;13.77;1.38;;;5.40;99.90;;;;;;5074209;28;20383;-24
2023/03/04 03:33:28;;;;;;;13.20;2.42;;;5.40;99.90;;;;;;5073159;28;20040;-24
2023/03/04 03:35:53;;;;;;;15.73;2.03;;;5.40;99.90;;;;;;5074802;28;20055;-24
2023/03/04 03:38:19;;;;;;;20.83;2.38;;;5.30;99.90;;;;;;5073599;28;20493;-24
2023/03/04 03:40:45;;;;;;;19.98;1.80;;;5.30;99.90;;;;;;5074181;28;20076;-24
2023/03/04 03:43:11;;;;;;;13.85;2.33;;;5.30;99.90;;;;;;5073201;28;20048;-24
2023/03/04 03:45:37;;;;;;;10.73;1.77;;;5.30;99.90;;;;;;5073511;28;20445;-24
2023/03/04 03:48:03;;;;;;;12.68;2.03;;;5.30;99.90;;;;;;5074023;28;20131;-24
2023/03/04 03:50:29;;;;;;;18.02;1.90;;;5.20;99.90;;;;;;5074062;28;20051;-24
2023/03/04 03:52:55;;;;;;;13.82;1.42;;;5.30;99.90;;;;;;5073697;28;20482;-24
2023/03/04 03:55:21;;;;;;;16.13;1.88;;;5.30;99.90;;;;;;5072795;28;20044;-24
2023/03/04 03:57:47;;;;;;;10.10;1.60;;;5.20;99.90;;;;;;5073960;28;20490;-24
2023/03/04 04:00:16;;;;;;;12.00;1.83;;;5.20;99.90;;;;;;5073948;28;20040;-24
2023/03/04 04:02:42;;;;;;;16.27;1.58;;;5.20;99.90;;;;;;5073542;28;20563;-24
2023/03/04 04:05:08;;;;;;;10.18;1.25;;;5.20;99.90;;;;;;5073761;28;20048;-24
2023/03/04 04:07:34;;;;;;;10.95;1.23;;;5.30;99.90;;;;;;5073016;28;20093;-24
2023/03/04 04:10:00;;;;;;;7.03;1.10;;;5.30;99.90;;;;;;5072189;28;20068;-24
2023/03/04 04:12:26;;;;;;;12.57;1.40;;;5.30;99.90;;;;;;5073846;28;20060;-24
2023/03/04 04:14:52;;;;;;;13.15;2.50;;;5.20;99.90;;;;;;5039478;28;20048;-24
2023/03/04 04:17:18;;;;;;;8.07;1.45;;;5.20;99.90;;;;;;5073752;28;20051;-24
2023/03/04 04:19:43;;;;;;;10.98;1.52;;;5.20;99.90;;;;;;5072519;28;20466;-24
2023/03/04 04:22:19;;;;;;;9.95;0.93;;;5.20;99.90;;;;;;5074202;28;20045;-24
2023/03/04 04:24:45;;;;;;;8.00;1.27;;;5.20;99.90;;;;;;5073624;28;20390;-24
2023/03/04 04:27:11;;;;;;;13.75;1.52;;;5.20;99.90;;;;;;5074204;28;20084;-24
2023/03/04 04:29:37;;;;;;;13.75;1.60;;;5.20;99.90;;;;;;5073481;28;20088;-24
2023/03/04 04:32:03;;;;;;;10.90;1.35;;;5.20;99.90;;;;;;5072591;28;20055;-24
2023/03/04 04:34:29;;;;;;;10.02;1.60;;;5.30;99.90;;;;;;5073790;28;20045;-24
2023/03/04 04:36:55;;;;;;;13.93;1.40;;;5.20;99.90;;;;;;5073569;28;20399;-24
2023/03/04 04:39:21;;;;;;;13.20;1.33;;;5.30;99.90;;;;;;5073503;28;20139;-24
2023/03/04 04:41:47;;;;;;;14.80;1.35;;;5.30;99.90;;;;;;5073753;28;20466;-24
2023/03/04 04:44:14;;;;;;;10.02;1.33;;;5.30;99.90;;;;;;5073436;28;20044;-24
2023/03/04 04:46:40;;;;;;;9.38;1.20;;;5.30;99.90;;;;;;5073439;28;20078;-24
2023/03/04 04:49:08;;;;;;;6.40;1.20;;;5.40;99.90;;;;;;5073298;28;20094;-24
2023/03/04 04:51:35;;;;;;;12.00;2.00;;;5.50;99.90;;;;;;5073927;28;20084;-23
2023/03/04 04:54:02;;;;;;;11.70;1.85;;;5.50;99.90;;;;;;5073324;28;20479;-24
2023/03/04 04:56:28;;;;;;;11.70;1.17;;;5.50;99.90;;;;;;5073300;28;20049;-24
2023/03/04 04:58:57;;;;;;;14.05;1.92;;;5.40;99.90;;;;;;5077301;28;20106;-24
2023/03/04 05:01:23;;;;;;;11.82;1.50;;;5.50;99.90;;;;;;5077267;28;20127;-23
2023/03/04 05:03:52;;;;;;;13.35;1.50;;;5.40;99.90;;;;;;5077214;28;20048;-24
2023/03/04 05:06:19;;;;;;;15.40;1.73;;;5.40;99.90;;;;;;5077035;28;20045;-24
2023/03/04 05:08:45;;;;;;;6.97;1.38;;;5.50;99.90;;;;;;5077009;28;20051;-24
2023/03/04 05:11:11;;;;;;;12.23;1.92;;;5.40;99.90;;;;;;5075912;28;20057;-24
2023/03/04 05:13:37;;;;;;;13.95;1.52;;;5.40;99.90;;;;;;5076996;28;20054;-24
2023/03/04 05:16:03;;;;;;;9.23;1.52;;;5.40;99.90;;;;;;5076664;28;20398;-24
2023/03/04 05:18:29;;;;;;;11.38;2.92;;;5.40;99.90;;;;;;5077157;28;20044;-24
2023/03/04 05:20:57;;;;;;;13.73;1.30;;;5.50;99.90;;;;;;5077704;28;20047;-24
2023/03/04 05:23:25;;;;;;;14.27;2.22;;;5.50;99.90;;;;;;5042806;28;20063;-24
2023/03/04 05:25:51;;;;;;;9.52;1.13;;;5.50;99.90;;;;;;5075493;28;20078;-24
2023/03/04 05:28:17;;;;;;;8.45;1.55;;;5.50;99.90;;;;;;5077178;28;20054;-24
2023/03/04 05:30:44;;;;;;;15.30;1.83;;;5.50;99.90;;;;;;5076921;28;20048;-24
2023/03/04 05:33:12;;;;;;;12.02;1.88;;;5.50;99.90;;;;;;5076680;28;20170;-24
2023/03/04 05:35:39;;;;;;;12.60;1.70;;;5.60;99.90;;;;;;5076581;28;20044;-23
2023/03/04 05:38:07;;;;;;;12.63;1.30;;;5.50;99.90;;;;;;5076558;28;20045;-23
2023/03/04 05:40:33;;;;;;;18.45;2.15;;;5.50;99.90;;;;;;5076546;28;20398;-23
2023/03/04 05:42:59;;;;;;;11.18;2.00;;;5.40;99.90;;;;;;5076516;28;20048;-23
2023/03/04 05:45:26;;;;;;;10.52;1.50;;;5.30;99.90;;;;;;5075471;28;20045;-24
2023/03/04 05:47:52;;;;;;;11.98;1.73;;;5.40;99.90;;;;;;5075262;28;20059;-24
2023/03/04 05:50:20;;;;;;;11.65;1.50;;;5.40;99.90;;;;;;5076241;28;20080;-24
2023/03/04 05:52:46;;;;;;;13.13;2.10;;;5.40;99.90;;;;;;5076150;28;20040;-23
2023/03/04 05:55:11;;;;;;;10.77;1.42;;;5.40;99.90;;;;;;5076291;28;20048;-23
2023/03/04 05:57:37;;;;;;;18.75;1.85;;;5.40;99.90;;;;;;5058791;28;20132;-24
2023/03/04 06:00:05;;;;;;;8.65;1.65;;;5.40;99.90;;;;;;5075586;28;20040;-24
2023/03/04 06:02:32;;;;;;;11.02;1.50;;;5.40;99.90;;;;;;5075160;28;20048;-23
2023/03/04 06:04:57;;;;;;;7.35;1.20;;;5.30;99.90;;;;;;5075303;28;20089;-23
2023/03/04 06:07:23;;;;;;;13.77;1.20;;;5.30;99.90;;;;;;5076581;28;20410;-23
2023/03/04 06:09:49;;;;;;;7.55;1.48;;;5.20;99.90;;;;;;5074976;28;20043;-23
2023/03/04 06:12:15;;;;;;;7.88;0.82;;;5.30;99.90;;;;;;5076614;28;20399;-23
2023/03/04 06:14:41;;;;;;;7.10;0.90;;;5.30;99.90;;;;;;5075927;28;20524;-24
2023/03/04 06:17:06;;;;;;;14.55;1.25;;;5.30;99.90;;;;;;5074888;28;20044;-24
2023/03/04 06:19:32;;;;;;;10.25;1.17;;;5.30;99.90;;;;;;5074821;28;20048;-23
2023/03/04 06:21:58;;;;;;;9.75;1.55;;;5.30;99.90;;;;;;5075463;28;20041;-23
2023/03/04 06:24:24;;;;;;;16.45;1.67;;;5.30;99.90;;;;;;5075729;28;20052;-23
2023/03/04 06:26:50;;;;;;;13.48;1.65;;;5.30;99.90;;;;;;5075698;28;20055;-23
2023/03/04 06:29:16;;;;;;;14.18;1.30;;;5.30;99.90;;;;;;5076422;28;20131;-23
2023/03/04 06:31:42;;;;;;;14.20;2.13;;;5.20;99.90;;;;;;5074388;28;20484;-24
2023/03/04 06:34:08;;;;;;;7.95;1.33;;;5.20;99.90;;;;;;5075536;28;20045;-23
2023/03/04 06:36:34;;;;;;;11.50;1.92;;;5.30;99.90;;;;;;5075482;28;20052;-23
2023/03/04 06:39:09;;;;;;;6.43;1.60;;;5.30;99.90;;;;;;5075499;28;20044;-23
2023/03/04 06:41:35;;;;;;;8.90;1.30;;;5.40;99.90;;;;;;5075459;28;20036;-24
2023/03/04 06:44:01;;;;;;;11.38;2.20;;;5.40;99.90;;;;;;5075332;28;20094;-24
2023/03/04 06:46:26;;;;;;;12.93;1.40;;;5.40;99.90;;;;;;5074319;28;20040;-24
2023/03/04 06:48:52;;;;;;;21.25;3.53;;;5.30;99.90;;;;;;5075145;28;20066;-24
2023/03/04 06:51:18;;;;;;;10.50;2.08;;;5.30;99.90;;;;;;5075025;28;20044;-24
2023/03/04 06:53:44;;;;;;;15.05;1.60;;;5.40;99.90;;;;;;5074188;28;20510;-23
2023/03/04 06:56:12;;;;;;;11.32;1.45;;;5.40;99.90;;;;;;5075067;28;20127;-24
2023/03/04 06:58:41;;;;;;;6.60;0.90;;;5.50;99.90;;;;;;5074993;28;20070;-24
2023/03/04 07:01:18;;;;;;;9.45;1.35;;;5.70;99.90;;;;;;5074354;28;20056;-23
2023/03/04 07:03:45;;;;;;;8.65;1.25;;;5.60;99.90;;;;;;5075852;28;20127;-23
2023/03/04 07:06:13;;;;;;;12.60;1.75;;;5.50;99.90;;;;;;5074762;28;20049;-22
2023/03/04 07:08:39;;;;;;;6.22;1.23;;;5.40;99.90;;;;;;5075270;28;20045;-22
2023/03/04 07:11:05;;;;;;;8.20;1.20;;;5.30;99.90;;;;;;5074677;28;20415;-22
2023/03/04 07:13:33;;;;;;;6.97;0.68;;;5.30;99.90;;;;;;5074716;28;20059;-22
2023/03/04 07:16:00;;;;;;;12.98;1.48;;;5.50;99.90;;;;;;5073694;28;20045;-22
2023/03/04 07:18:26;;;;;;;8.90;1.73;;;5.40;99.90;;;;;;5073479;28;20052;-24
2023/03/04 07:20:52;;;;;;;8.00;1.02;;;5.40;99.90;;;;;;5074487;28;20048;-24
2023/03/04 07:23:18;;;;;;;19.48;3.03;;;5.30;99.90;;;;;;5057226;28;20045;-24
2023/03/04 07:25:45;;;;;;;15.80;1.30;;;5.50;99.90;;;;;;5074502;28;20135;-24
2023/03/04 07:28:11;;;;;;;16.35;1.40;;;5.40;99.90;;;;;;5074329;28;20047;-23
2023/03/04 07:30:37;;;;;;;19.33;2.35;;;5.40;99.90;;;;;;5074448;28;20052;-23
2023/03/04 07:33:02;;;;;;;22.83;2.60;;;5.50;99.90;;;;;;5073124;28;20083;-22
2023/03/04 07:35:28;;;;;;;20.63;2.55;;;5.60;99.90;;;;;;5074368;28;20040;-22
2023/03/04 07:37:54;;;;;;;21.25;3.17;;;5.70;99.90;;;;;;5074874;28;20630;-22
2023/03/04 07:40:20;;;;;;;22.33;3.80;;;5.70;99.90;;;;;;5073050;28;20080;-22
2023/03/04 07:42:53;;;;;;;19.52;3.42;;;5.70;99.90;;;;;;5074999;28;20044;-22
2023/03/04 07:45:20;;;;;;;15.43;2.10;;;5.80;99.90;;;;;;5074130;28;20084;-22
2023/03/04 07:47:46;;;;;;;28.13;3.08;;;6.00;99.90;;;;;;5074624;28;20151;-22
2023/03/04 07:50:12;;;;;;;17.30;2.42;;;6.10;99.90;;;;;;5074036;28;20541;-22
2023/03/04 07:52:39;;;;;;;18.20;2.30;;;6.10;99.90;;;;;;5073193;28;20040;-22
2023/03/04 07:55:06;;;;;;;15.07;2.63;;;6.10;99.90;;;;;;5073855;28;20084;-22
2023/03/04 07:57:32;;;;;;;14.38;2.42;;;6.10;99.90;;;;;;5074007;28;20123;-22
2023/03/04 07:59:58;;;;;;;23.77;3.10;;;6.00;99.90;;;;;;5073901;28;20079;-22
2023/03/04 08:02:23;;;;;;;18.02;3.03;;;6.00;99.90;;;;;;5073953;28;20119;-23
2023/03/04 08:04:49;;;;;;;15.70;2.70;;;6.00;99.90;;;;;;5074659;28;20170;-23
2023/03/04 08:07:15;;;;;;;17.08;2.67;;;6.00;99.90;;;;;;5073858;28;20044;-22
2023/03/04 08:09:42;;;;;;;19.48;3.25;;;6.00;99.90;;;;;;5056190;28;20165;-23
2023/03/04 08:12:08;;;;;;;14.57;2.08;;;6.00;99.90;;;;;;5071421;28;20045;-23
2023/03/04 08:14:34;;;;;;;17.38;2.97;;;6.00;99.90;;;;;;5073590;28;20126;-23
2023/03/04 08:16:59;;;;;;;21.63;4.57;;;6.00;99.90;;;;;;5073831;28;20462;-23
2023/03/04 08:19:25;;;;;;;28.50;4.07;;;6.00;99.90;;;;;;5073596;28;20044;-23
2023/03/04 08:21:51;;;;;;;15.43;2.38;;;6.00;99.90;;;;;;5073234;28;20131;-23
2023/03/04 08:24:17;;;;;;;13.85;2.65;;;6.00;99.90;;;;;;5074333;28;20050;-23
2023/03/04 08:26:46;;;;;;;18.10;2.35;;;5.80;99.90;;;;;;5072262;28;20452;-23
2023/03/04 08:29:15;;;;;;;18.45;2.58;;;5.80;99.90;;;;;;5073397;28;20052;-23
2023/03/04 08:31:41;;;;;;;20.15;2.88;;;5.90;99.90;;;;;;5073098;28;20041;-23
2023/03/04 08:34:09;;;;;;;12.45;2.85;;;5.90;99.90;;;;;;5073429;28;20127;-23
2023/03/04 08:36:35;;;;;;;18.95;3.75;;;6.00;99.90;;;;;;5073276;28;20090;-23
2023/03/04 08:39:01;;;;;;;17.85;3.63;;;6.10;99.90;;;;;;5073345;28;20043;-23
2023/03/04 08:41:28;;;;;;;16.05;2.50;;;6.20;99.90;;;;;;5073321;28;20040;-23
2023/03/04 08:43:54;;;;;;;18.30;3.33;;;6.10;99.90;;;;;;5072589;28;20052;-23
2023/03/04 08:46:20;;;;;;;16.92;2.55;;;6.10;99.90;;;;;;5072370;28;20062;-23
2023/03/04 08:48:45;;;;;;;17.15;2.50;;;6.20;99.90;;;;;;5073293;28;20045;-23
2023/03/04 08:51:13;;;;;;;19.27;3.08;;;6.20;99.90;;;;;;5073428;28;20051;-23
2023/03/04 08:53:40;;;;;;;22.10;3.50;;;6.20;99.90;;;;;;5072672;28;20375;-23
2023/03/04 08:56:07;;;;;;;22.08;2.92;;;6.30;99.90;;;;;;5073374;28;20115;-23
2023/03/04 08:58:33;;;;;;;17.58;2.50;;;6.30;99.90;;;;;;5055862;28;20048;-23
2023/03/04 09:01:00;;;;;;;15.95;2.20;;;6.40;99.90;;;;;;5073247;28;20045;-23
2023/03/04 09:03:26;;;;;;;14.05;2.78;;;6.50;99.90;;;;;;5055812;28;20084;-23
2023/03/04 09:05:52;;;;;;;15.27;2.55;;;6.40;99.90;;;;;;5073153;28;20089;-23
2023/03/04 09:08:18;;;;;;;21.35;3.22;;;6.50;99.90;;;;;;5073394;28;20049;-23
2023/03/04 09:10:45;;;;;;;19.48;2.88;;;6.60;99.90;;;;;;5072989;28;20056;-23
2023/03/04 09:13:13;;;;;;;19.60;3.83;;;6.70;99.90;;;;;;5073492;28;20052;-23
2023/03/04 09:15:44;;;;;;;17.08;2.65;;;6.70;99.90;;;;;;5055549;28;20067;-23
2023/03/04 09:18:10;;;;;;;25.05;3.22;;;6.80;99.90;;;;;;5072995;28;20094;-23
2023/03/04 09:20:36;;;;;;;9.18;1.88;;;6.80;99.90;;;;;;5071760;28;20041;-24
2023/03/04 09:23:01;;;;;;;18.08;2.90;;;6.80;99.90;;;;;;5073055;28;20109;-23
2023/03/04 09:25:27;;;;;;;16.98;2.13;;;6.80;99.90;;;;;;5073032;28;20506;-23
2023/03/04 09:27:53;;;;;;;26.42;2.53;;;6.90;99.90;;;;;;5055169;28;20051;-23
2023/03/04 09:30:19;;;;;;;14.32;2.25;;;6.90;99.90;;;;;;5072904;28;20093;-23
2023/03/04 09:32:45;;;;;;;15.57;2.30;;;6.90;99.90;;;;;;5072973;28;20145;-23
2023/03/04 09:35:11;;;;;;;14.85;2.15;;;6.80;99.90;;;;;;5072935;28;20127;-23
2023/03/04 09:37:36;;;;;;;10.02;1.55;;;6.80;99.90;;;;;;5072937;28;20052;-23
2023/03/04 09:40:04;;;;;;;8.82;1.63;;;6.80;99.90;;;;;;5073481;28;20040;-23
2023/03/04 09:42:42;;;;;;;9.73;1.80;;;6.80;99.90;;;;;;5072801;28;20098;-23
2023/03/04 09:45:14;;;;;;;10.88;1.15;;;6.70;99.90;;;;;;5075220;28;20053;-23
2023/03/04 09:47:41;;;;;;;10.50;1.50;;;6.50;99.90;;;;;;5077065;28;20463;-23
2023/03/04 09:50:10;;;;;;;6.35;1.48;;;6.60;99.90;;;;;;5077012;28;20053;-23
2023/03/04 09:52:50;;;;;;;7.20;0.95;;;6.60;99.90;;;;;;5076855;28;20552;-23
2023/03/04 09:55:19;;;;;;;8.93;1.50;;;6.70;99.90;;;;;;5076010;28;20082;-23
2023/03/04 09:57:52;;;;;;;13.77;1.15;;;6.80;99.90;;;;;;5076488;28;20391;-23
2023/03/04 10:00:33;;;;;;;10.40;1.38;;;6.80;99.90;;;;;;5076423;28;20526;-23
2023/03/04 10:03:08;;;;;;;8.18;1.27;;;6.90;99.90;;;;;;5074877;28;20505;-23
2023/03/04 10:05:51;;;;;;;8.63;1.38;;;7.10;99.90;;;;;;5075960;28;20095;-23
2023/03/04 10:08:56;;;;;;;14.63;2.95;;;7.20;99.90;;;;;;5076754;28;20056;-24
2023/03/04 10:11:36;;;;;;;18.80;2.50;;;7.40;99.90;;;;;;5074484;28;20060;-24
2023/03/04 10:14:19;;;;;;;14.60;1.98;;;7.30;99.90;;;;;;5075835;28;20044;-24
2023/03/04 10:16:52;;;;;;;15.75;2.33;;;7.10;99.90;;;;;;5076665;28;20106;-23
2023/03/04 10:19:47;;;;;;;12.43;2.10;;;7.10;99.90;;;;;;5075873;28;20110;-23
2023/03/04 10:22:41;;;;;;;15.45;2.15;;;6.90;99.90;;;;;;5075815;28;20571;-23
2023/03/04 10:25:30;;;;;;;16.73;2.33;;;7.00;99.90;;;;;;5075257;28;20060;-23
2023/03/04 10:28:14;;;;;;;14.30;1.70;;;7.10;99.90;;;;;;5075716;28;20115;-23
2023/03/04 10:30:58;;;;;;;;;;;7.20;99.90;;;;;;5074896;28;20044;-23
2023/03/04 10:33:34;;;;;;;9.25;1.60;;;7.30;99.90;;;;;;5075572;28;20295;-23
2023/03/04 10:36:34;;;;;;;8.32;2.17;;;7.40;99.90;;;;;;5076260;28;20110;-24
2023/03/04 10:39:09;;;;;;;12.00;2.45;;;7.50;99.90;;;;;;5076090;28;20044;-23
2023/03/04 10:41:35;;;;;;;12.02;2.40;;;7.60;99.90;;;;;;5074402;28;20044;-23
2023/03/04 10:44:10;;;;;;;19.45;3.05;;;7.80;99.90;;;;;;5075314;28;20051;-24
2023/03/04 10:46:41;;;;;;;16.38;2.33;;;7.70;99.90;;;;;;5074258;28;20134;-24
2023/03/04 10:49:09;;;;;;;15.48;2.60;;;7.50;99.90;;;;;;5075081;28;20483;-24
2023/03/04 10:51:42;;;;;;;14.77;2.47;;;7.50;99.90;;;;;;5074750;28;20060;-23
2023/03/04 10:54:31;;;;;;;13.30;2.20;;;7.30;99.90;;;;;;5074647;28;20488;-24
2023/03/04 10:56:59;;;;;;;16.25;3.47;;;7.30;99.90;;;;;;5074561;28;20078;-24
2023/03/04 10:59:39;;;;;;;9.38;2.03;;;7.30;99.90;;;;;;5074981;28;20044;-23
2023/03/04 11:02:22;;;;;;;17.30;2.78;;;7.40;99.90;;;;;;5075270;28;20040;-24
2023/03/04 11:05:06;;;;;;;14.50;2.45;;;7.50;99.90;;;;;;5075374;28;20041;-24
2023/03/04 11:07:39;;;;;;;12.95;1.60;;;7.70;99.90;;;;;;5074700;28;20048;-24
2023/03/04 11:10:08;;;;;;;;;;;7.70;99.90;;;;;;5075103;28;20056;-24
2023/03/04 11:12:34;;;;;;;11.98;2.55;;;7.80;99.90;;;;;;5074675;28;19920;-24
2023/03/04 11:15:01;;;;;;;18.27;2.50;;;7.80;99.90;;;;;;5073654;28;20493;-23
2023/03/04 11:17:39;;;;;;;12.57;2.55;;;8.00;99.90;;;;;;5075375;28;20121;-24
2023/03/04 11:20:38;;;;;;;17.60;2.42;;;8.20;99.90;;;;;;5073329;28;20059;-24
2023/03/04 11:23:26;;;;;;;15.50;2.35;;;8.00;99.90;;;;;;5075256;28;20086;-24
2023/03/04 11:26:00;;;;;;;11.50;2.15;;;7.70;99.90;;;;;;5074553;28;20040;-23
2023/03/04 11:28:57;;;;;;;21.13;2.47;;;7.60;99.90;;;;;;5074487;28;20044;-24
2023/03/04 11:31:32;;;;;;;12.25;2.03;;;8.30;99.90;;;;;;5074428;28;20055;-24
2023/03/04 11:34:26;;;;;;;16.23;2.78;;;8.80;99.90;;;;;;5074472;28;20051;-23
2023/03/04 11:37:23;;;;;;;14.05;2.75;;;9.30;99.90;;;;;;5072468;28;20387;-23
2023/03/04 11:40:12;;;;;;;14.35;2.92;;;8.40;99.90;;;;;;5074248;28;20044;-23
2023/03/04 11:42:53;;;;;;;17.80;2.58;;;7.80;99.90;;;;;;5074207;28;20053;-23
2023/03/04 11:45:31;;;;;;;19.27;4.72;;;7.60;99.90;;;;;;5074717;28;20067;-23
2023/03/04 11:48:15;;;;;;;18.48;2.80;;;7.40;99.90;;;;;;5074688;28;20048;-23
2023/03/04 11:50:48;;;;;;;22.13;2.85;;;7.40;99.90;;;;;;5074075;28;20052;-23
2023/03/04 11:53:43;;;;;;;17.63;3.60;;;7.40;99.90;;;;;;5074959;28;20040;-23
2023/03/04 11:56:18;;;;;;;17.50;2.97;;;7.40;99.90;;;;;;5073677;28;20044;-23
2023/03/04 11:59:18;;;;;;;18.85;2.92;;;7.60;99.90;;;;;;5072992;28;20041;-23
2023/03/04 12:01:47;;;;;;;13.93;2.63;;;7.70;99.90;;;;;;5074111;28;20471;-23
2023/03/04 12:04:40;;;;;;;10.57;2.25;;;7.80;99.90;;;;;;5074677;28;20048;-23
2023/03/04 12:07:46;;;;;;;23.45;3.30;;;8.00;99.90;;;;;;5073123;28;20046;-23
2023/03/04 12:10:31;;;;;;;18.73;3.28;;;7.70;99.90;;;;;;5073048;28;20483;-23
2023/03/04 12:13:48;;;;;;;19.48;3.15;;;7.40;99.90;;;;;;5073556;28;20069;-23
2023/03/04 12:16:47;;;;;;;13.98;2.47;;;7.00;99.90;;;;;;5072193;28;20056;-23
2023/03/04 12:19:44;;;;;;;21.52;2.72;;;7.60;99.90;;;;;;5073703;28;20482;-23
2023/03/04 12:22:29;;;;;;;20.42;2.50;;;7.90;99.90;;;;;;5073642;28;20122;-23
2023/03/04 12:25:35;;;;;;;13.90;2.03;;;7.30;99.90;;;;;;5074463;28;20119;-23
2023/03/04 12:28:24;;;;;;;13.35;2.17;;;6.90;99.90;;;;;;5073667;28;20048;-23
2023/03/04 12:30:58;;;;;;;16.08;2.53;;;6.60;99.90;;;;;;5073161;28;20506;-23
2023/03/04 12:33:39;;;;;;;15.52;2.92;;;6.70;99.90;;;;;;5074082;28;20059;-23
2023/03/04 12:36:19;;;;;;;15.65;2.17;;;7.30;99.90;;;;;;5073560;28;20052;-23
2023/03/04 12:38:53;;;;;;;13.40;3.00;;;8.20;99.90;;;;;;5073861;28;20378;-23
2023/03/04 12:41:35;;;;;;;18.17;2.58;;;8.30;99.90;;;;;;5073561;28;20055;-23
2023/03/04 12:44:18;;;;;;;14.90;2.67;;;8.60;99.90;;;;;;5073446;28;20110;-23
2023/03/04 12:47:16;;;;;;;17.60;2.38;;;9.00;99.90;;;;;;5073499;28;20044;-23
2023/03/04 12:50:18;;;;;;;12.35;2.15;;;9.20;99.90;;;;;;5071250;28;20044;-23
2023/03/04 12:53:23;;;;;;;20.13;2.30;;;9.00;99.90;;;;;;5063833;28;20128;-23
2023/03/04 12:55:50;;;;;;;15.27;2.20;;;9.30;99.90;;;;;;5033179;28;20054;-23
2023/03/04 12:58:23;;;;;;;16.08;3.03;;;9.00;99.90;;;;;;5052899;28;20045;-24
2023/03/04 13:01:08;;;;;;;8.25;1.60;;;8.40;99.90;;;;;;5053261;28;20045;-24
2023/03/04 13:03:51;;;;;;;14.82;2.45;;;8.00;99.90;;;;;;5053876;28;20053;-24
2023/03/04 13:06:57;;;;;;;16.50;2.75;;;8.00;99.90;;;;;;5053189;28;20494;-24